WEATHER DATA

YESTERDAY
Time Temp. Dewp. Hum. Wind dir Wind speed Wind gust Bar. 1h Prec. 24h Prec.
00:04 15.4 8.2 62 199 0.8 2.8 1022.4 0.0000 0.0000
00:14 15 7.3 60 225 0.8 2.8 1022.5 0.0000 0.0000
00:24 14.7 7 60 191 0.8 2.2 1022.4 0.0000 0.0000
00:34 14.2 6.3 59 270 0.3 1.4 1022.6 0.0000 0.0000
00:44 13.9 6 59 315 0.3 1.7 1022.6 0.0000 0.0000
00:54 13.5 5.7 59 270 0.3 1.7 1022.7 0.0000 0.0000
01:04 13.1 5.5 60 310 1.1 2.8 1022.8 0.0000 0.0000
01:14 13 5.4 60 270 0.8 2.2 1022.9 0.0000 0.0000
01:24 12.9 5.3 60 270 0.3 2.2 1023 0.0000 0.0000
01:34 12.8 5.5 61 284 0.8 3.6 1022.9 0.0000 0.0000
01:44 12.5 5.2 61 270 0.8 2.5 1023.1 0.0000 0.0000
01:55 12.1 4.8 61 300 1.1 3.3 1023.1 0.0000 0.0000
02:04 11.7 4.7 62 308 0.8 3.6 1023.1 0.0000 0.0000
02:14 11.3 4.3 62 270 0.3 1.4 1023.1 0.0000 0.0000
02:25 10.9 4.1 63 288 0.8 2.2 1023.1 0.0000 0.0000
02:34 10.5 3.8 63 270 0.3 1.4 1023.1 0.0000 0.0000
02:44 10.2 3.7 64 270 0.8 2.2 1023.2 0.0000 0.0000
02:54 9.9 3.6 65 288 0.8 1.7 1023.2 0.0000 0.0000
03:05 9.6 3.4 65 270 0.3 2.2 1023.4 0.0000 0.0000
03:14 9.3 3.3 66 270 0.3 1.1 1023.4 0.0000 0.0000
03:24 9 3.2 67 270 0.3 1.1 1023.4 0.0000 0.0000
03:35 8.8 3 67 270 0.3 3.9 1023.6 0.0000 0.0000
03:45 8.6 2.8 67 270 0.3 1.4 1023.6 0.0000 0.0000
03:54 8.4 2.8 68 311 0.8 1.4 1023.6 0.0000 0.0000
04:05 8.2 2.7 68 270 0.3 1.4 1023.7 0.0000 0.0000
04:15 8 2.7 69 310 0.8 1.7 1023.7 0.0000 0.0000
04:25 7.9 2.8 70 312 0.8 1.7 1023.8 0.0000 0.0000
04:34 7.8 2.7 70 315 0.8 2.2 1023.7 0.0000 0.0000
04:45 7.6 2.5 70 270 0.3 1.1 1023.8 0.0000 0.0000
04:55 7.4 2.3 70 312 0.8 1.7 1023.8 0.0000 0.0000
05:04 7.2 2.1 70 270 0.3 1.4 1023.9 0.0000 0.0000
05:15 7 2.1 71 270 0.3 1.4 1023.9 0.0000 0.0000
05:25 6.9 2.2 72 270 0.3 1.1 1024 0.0000 0.0000
05:35 6.7 2 72 270 0.8 1.7 1024 0.0000 0.0000
05:44 6.6 2.1 73 307 0.8 1.7 1024.2 0.0000 0.0000
05:55 6.6 2.1 73 305 0.3 2.2 1024.1 0.0000 0.0000
06:05 6.5 2 73 270 0.3 1.4 1024.1 0.0000 0.0000
06:15 6.4 1.9 73 270 0.3 1.1 1024.2 0.0000 0.0000
06:25 6.3 1.8 73 270 0.3 0.8 1024.2 0.0000 0.0000
06:35 6.3 2 74 297 0.8 2.2 1024.2 0.0000 0.0000
06:45 6.4 2.1 74 305 0.3 1.1 1024.2 0.0000 0.0000
06:55 6.3 2 74 306 0.3 1.1 1024.3 0.0000 0.0000
07:05 6.4 2.3 75 310 0.8 1.7 1024.2 0.0000 0.0000
07:15 6.6 2.5 75 293 0.8 1.7 1024.3 0.0000 0.0000
07:25 6.7 2.4 74 270 0.3 1.1 1024.3 0.0000 0.0000
07:35 6.8 2.7 75 270 0.3 1.4 1024.3 0.0000 0.0000
07:45 6.9 2.8 75 270 0.3 1.4 1024.4 0.0000 0.0000
07:55 7.2 3.1 75 270 0.3 1.4 1024.6 0.0000 0.0000
08:05 7.5 3.2 74 309 0.8 2.2 1024.7 0.0000 0.0000
08:15 7.7 3.4 74 308 0.8 2.5 1024.6 0.0000 0.0000
08:25 8.6 4.2 74 311 0.8 2.5 1024.7 0.0000 0.0000
08:35 9.4 4.6 72 308 1.1 1.7 1024.8 0.0000 0.0000
08:45 9.7 4.3 69 318 1.1 2.5 1024.9 0.0000 0.0000
08:55 10.2 4.8 69 318 1.1 2.8 1024.9 0.0000 0.0000
09:05 10.9 5 67 304 1.1 2.5 1025 0.0000 0.0000
09:16 11.4 5.5 67 270 0.3 1.4 1025 0.0000 0.0000
09:25 12.2 6 66 315 0.8 2.2 1025.1 0.0000 0.0000
09:35 12.6 6 64 311 1.1 2.2 1025.1 0.0000 0.0000
09:45 12.8 5.9 63 288 0.8 1.7 1025.3 0.0000 0.0000
09:55 13.8 6.4 61 203 0.8 2.5 1025.4 0.0000 0.0000
10:05 14.2 6.1 58 315 1.1 2.2 1025.4 0.0000 0.0000
10:15 14.4 5.5 55 240 0.8 2.2 1025.4 0.0000 0.0000
10:26 14.9 6.2 56 200 0.8 1.7 1025.4 0.0000 0.0000
10:35 15.4 6.9 57 270 0.3 1.4 1025.4 0.0000 0.0000
10:45 15.8 6.5 54 310 1.1 3.3 1025.5 0.0000 0.0000
10:56 15.5 6 53 270 1.1 2.2 1025.4 0.0000 0.0000
11:06 15.8 6.3 53 270 0.8 1.7 1025.5 0.0000 0.0000
11:15 16.4 7.1 54 270 0.8 2.2 1025.6 0.0000 0.0000
11:25 16.6 7 53 304 0.8 2.2 1025.6 0.0000 0.0000
11:36 16.8 6.3 50 196 0.8 2.5 1025.5 0.0000 0.0000
11:45 16.9 6.4 50 197 1.1 2.5 1025.6 0.0000 0.0000
11:55 17.2 7.3 52 213 0.8 2.8 1025.5 0.0000 0.0000
12:06 17.2 7 51 192 1.1 2.5 1025.6 0.0000 0.0000
12:16 17.2 6.7 50 300 1.1 2.8 1025.6 0.0000 0.0000
12:21 17 6.5 50 289 1.1 5 1025.5 0.0000 0.0000
12:31 16.9 6.4 50 204 0.8 2.5 1025.6 0.0000 0.0000
12:39 17.1 6.9 51 237 0.8 1.7 1025.6 0.0000 0.0000
12:51 17.5 7 50 203 1.1 2.5 1025.4 0.0000 0.0000
13:01 17.7 7.4 51 254 1.1 3.3 1025.4 0.0000 0.0000
13:11 17.8 7.2 50 215 0.8 2.5 1025.4 0.0000 0.0000
13:21 18.3 8 51 303 0.8 2.8 1025.3 0.0000 0.0000
13:31 18.4 8.1 51 217 1.1 3.3 1025.4 0.0000 0.0000
13:41 18.4 7.8 50 187 1.1 3.3 1025.3 0.0000 0.0000
13:51 18.7 8.4 51 229 0.8 2.2 1025.3 0.0000 0.0000
14:01 18.5 7.6 49 188 1.1 2.8 1025.3 0.0000 0.0000
14:11 19.1 8.1 49 229 1.1 2.8 1025.2 0.0000 0.0000
14:21 18.4 7.8 50 322 1.7 4.7 1025.1 0.0000 0.0000
14:31 18.9 8.3 50 221 1.1 2.8 1025 0.0000 0.0000
14:41 19.6 8.6 49 311 0.8 1.7 1024.8 0.0000 0.0000
14:51 19.6 8.3 48 319 1.4 4.4 1024.9 0.0000 0.0000
15:02 19.7 8.4 48 306 1.1 2.8 1024.8 0.0000 0.0000
15:11 19.4 8.1 48 326 2.2 3.9 1024.8 0.0000 0.0000
15:21 19.6 9.2 51 270 0.8 2.5 1024.9 0.0000 0.0000
15:32 20.5 8.8 47 214 1.1 3.6 1024.9 0.0000 0.0000
15:41 21 9.3 47 309 1.1 2.5 1024.9 0.0000 0.0000
15:51 21.4 9.9 48 258 0.8 2.2 1024.9 0.0000 0.0000
16:01 21.1 8.7 45 291 0.8 2.2 1024.9 0.0000 0.0000
16:12 21.5 9.7 47 304 0.8 2.8 1024.9 0.0000 0.0000
16:21 21.4 9.3 46 310 0.8 1.7 1024.8 0.0000 0.0000
16:31 21.5 9.4 46 308 0.8 2.8 1024.8 0.0000 0.0000
16:42 21.7 8.9 44 309 1.1 3.3 1024.9 0.0000 0.0000
16:49 21.4 9 45 326 1.1 4.7 1024.9 0.0000 0.0000
17:11 21 8.6 45 225 1.1 2.8 1024.9 0.0000 0.0000
17:22 21.4 9 45 270 0.3 1.4 1025 0.0000 0.0000
17:31 21.3 8.9 45 270 0.8 2.5 1025.2 0.0000 0.0000
17:42 21.9 9.1 44 248 0.8 1.7 1025.1 0.0000 0.0000
17:51 21.9 9.1 44 245 0.8 2.5 1025.2 0.0000 0.0000
18:00 20.5 7.8 44 208 0.8 2.8 1025.1 0.0000 0.0000
18:10 20 8.4 47 270 0.3 1.4 1025.2 0.0000 0.0000
18:20 20.8 9.1 47 303 0.3 2.5 1025.2 0.0000 0.0000
18:30 20.6 8.9 47 195 1.1 2.8 1025.1 0.0000 0.0000
18:40 19.6 8.6 49 240 0.8 2.5 1025.2 0.0000 0.0000
18:50 20.3 8.6 47 196 1.1 2.2 1025.2 0.0000 0.0000
19:01 20.1 8.8 48 180 0.8 3.3 1025.1 0.0000 0.0000
19:10 20 8.4 47 270 0.8 2.5 1025.2 0.0000 0.0000
19:20 19.7 8.4 48 201 0.8 2.5 1025.3 0.0000 0.0000
19:31 18.9 8 49 180 0.3 1.7 1025.4 0.0000 0.0000
19:41 18.8 8.2 50 286 0.8 1.4 1025.3 0.0000 0.0000
19:50 18.4 7.8 50 225 0.8 2.2 1025.4 0.0000 0.0000
20:00 17.4 7.2 51 249 0.8 2.2 1025.4 0.0000 0.0000
20:11 16.3 6.7 53 270 0.3 1.4 1025.5 0.0000 0.0000
20:20 15.3 6.1 54 270 0.3 1.1 1025.5 0.0000 0.0000
20:30 14.3 5.4 55 304 1.1 2.8 1025.5 0.0000 0.0000
20:41 13.5 5.4 58 225 0.8 2.2 1025.6 0.0000 0.0000
20:51 13 4.9 58 225 0.8 1.7 1025.5 0.0000 0.0000
21:00 12.5 4.7 59 239 0.3 1.1 1025.6 0.0000 0.0000
21:11 12.1 4.8 61 315 0.3 1.4 1025.6 0.0000 0.0000
21:21 11.6 4.3 61 270 0.3 0.8 1025.6 0.0000 0.0000
21:31 11.1 4.3 63 302 0.3 1.4 1025.8 0.0000 0.0000
21:40 10.7 4.2 64 164 0.3 1.1 1025.9 0.0000 0.0000
21:51 10.4 4.1 65 270 0.3 0.8 1026 0.0000 0.0000
22:01 10 3.7 65 270 0.3 1.1 1026.1 0.0000 0.0000
22:10 9.8 3.8 66 0 0.8 1026.2 0.0000 0.0000
22:21 9.6 3.6 66 135 0.3 0.8 1026.2 0.0000 0.0000
22:31 9.4 3.6 67 270 0.3 0.8 1026.2 0.0000 0.0000
22:41 9.4 3.8 68 270 0.3 0.8 1026.3 0.0000 0.0000
22:51 9.1 3.5 68 210 0.3 1.1 1026.4 0.0000 0.0000
23:01 8.9 3.5 69 303 0.3 1.1 1026.4 0.0000 0.0000
23:11 8.9 3.5 69 270 0.3 0.8 1026.4 0.0000 0.0000
23:21 8.8 3.6 70 0 0.8 1026.4 0.0000 0.0000
23:31 8.6 3.4 70 0 0.8 1026.4 0.0000 0.0000
23:41 8.5 3.6 71 270 0.3 0.8 1026.3 0.0000 0.0000
23:51 8.4 3.5 71 270 0.3 1.1 1026.3 0.0000 0.0000

DAY STATISTIC

2018-06-22
TEMPERATURE
AVERAGE
13.7
HIGH
21.9
17:42
LOW
6.3
06:25
PRESSURE
AVERAGE
1024.8
HIGH
1026.4
22:51
LOW
1022.4
00:04
DEWPOINT
AVERAGE
5.6
HIGH
9.9
15:51
LOW
1.8
06:25
HUMIDITY
AVERAGE
59
HIGH
75
07:05
LOW
44
16:42
WIND SPEED
AVERAGE
0.7
HIGH
2.2
15:11
WIND GUST
AVERAGE
2.1
HIGH
5.0
12:21
WIND DIRECTION
PREVAILING
W
39.9%
N
0.0
NE
0.0
E
0.0
SE
0.7
S
11.9
SW
13.3
W
39.9
NW
32.2
PRECIPITATION
RAIN HOUR
0.0
RAIN DAY
0.0
TEMPERATURE (°C)
LOW
6.3
HIGH
21.9
AVERAGE
13.7
PRESSURE (hpa)
LOW
1022.4
HIGH
1026.4
AVERAGE
1024.8
DEVICE